Terminal Aerodrome Forecast
Issued by NWS

Home | Current Version | Previous Version | Text Only | Print | Product List | Glossary On
Versions: 1 2 3 4 5 6 7 8 9 10 11 12 13 14 15 16 17 18
000
FTUS43 KOAX 171900 AAA
TAFSNY
TAF AMD
KSNY 171935Z 1720/1818 16015KT P6SM BKN010
     FM172100 17016G26KT P6SM SCT020
     FM180500 18016G30KT P6SM SCT150
     FM181500 21015G25KT P6SM SCT050=

USA.gov is the U.S. government's official web portal to all federal, state and local government web resources and services.